Time;durP1;ratioP1;P1;durP2;ratioP2;P2;SDS_P1;SDS_P2;PMS_P1;PMS_P2;Temp;Humidity;BMP_temperature;BMP_pressure;BME280_temperature;BME280_humidity;BME280_pressure;Samples;Min_cycle;Max_cycle;Signal;HPM_P1;HPM_P2
2023/09/10 00:01:53;;;;;;;43.80;39.22;;;;;;;;;;5068651;28;20024;-62
2023/09/10 00:04:19;;;;;;;43.90;39.38;;;;;;;;;;5095265;23;20040;-51
2023/09/10 00:06:45;;;;;;;45.45;40.65;;;;;;;;;;5091032;28;20177;-53
2023/09/10 00:09:11;;;;;;;42.67;38.28;;;;;;;;;;5089458;28;20036;-51
2023/09/10 00:11:37;;;;;;;45.90;41.20;;;;;;;;;;5090880;28;20020;-54
2023/09/10 00:14:03;;;;;;;42.80;38.38;;;;;;;;;;5090194;28;20043;-52
2023/09/10 00:16:29;;;;;;;42.60;38.22;;;;;;;;;;5090689;28;20024;-50
2023/09/10 00:18:55;;;;;;;43.42;37.65;;;;;;;;;;5093262;28;20354;-52
2023/09/10 00:21:21;;;;;;;43.13;38.13;;;;;;;;;;5095207;28;20028;-55
2023/09/10 00:23:47;;;;;;;42.67;38.30;;;;;;;;;;5094778;28;20055;-53
2023/09/10 00:26:13;;;;;;;43.13;38.47;;;;;;;;;;5094304;28;20028;-51
2023/09/10 00:28:38;;;;;;;42.25;37.85;;;;;;;;;;5094817;28;20020;-53
2023/09/10 00:31:04;;;;;;;43.03;38.30;;;;;;;;;;5094934;28;20111;-54
2023/09/10 00:33:30;;;;;;;42.38;37.88;;;;;;;;;;5094681;28;20031;-54
2023/09/10 00:35:56;;;;;;;43.33;38.55;;;;;;;;;;5093862;28;20040;-55
2023/09/10 00:38:22;;;;;;;46.13;41.22;;;;;;;;;;5094622;28;20020;-53
2023/09/10 00:40:48;;;;;;;44.15;39.53;;;;;;;;;;5094539;28;20244;-55
2023/09/10 00:43:14;;;;;;;44.90;40.20;;;;;;;;;;5094537;28;20028;-54
2023/09/10 00:45:41;;;;;;;44.67;39.78;;;;;;;;;;5092335;28;20016;-55
2023/09/10 00:48:07;;;;;;;47.45;41.47;;;;;;;;;;5094379;28;20028;-50
2023/09/10 00:50:33;;;;;;;47.83;42.60;;;;;;;;;;5094588;28;20032;-58
2023/09/10 00:53:00;;;;;;;50.60;45.38;;;;;;;;;;5094365;28;20032;-51
2023/09/10 00:55:29;;;;;;;48.33;43.08;;;;;;;;;;5093478;28;20047;-52
2023/09/10 00:57:55;;;;;;;53.47;42.70;;;;;;;;;;5094311;28;20108;-53
2023/09/10 01:00:21;;;;;;;48.95;43.13;;;;;;;;;;5094226;28;20534;-54
2023/09/10 01:02:49;;;;;;;48.58;43.58;;;;;;;;;;5094187;28;20069;-54
2023/09/10 01:05:16;;;;;;;48.50;43.28;;;;;;;;;;5093150;28;20043;-54
2023/09/10 01:07:42;;;;;;;46.20;41.28;;;;;;;;;;5093946;28;20348;-54
2023/09/10 01:10:08;;;;;;;46.30;41.33;;;;;;;;;;5093970;28;20368;-55
2023/09/10 01:12:48;;;;;;;45.70;40.95;;;;;;;;;;5094061;28;20512;-55
2023/09/10 01:15:20;;;;;;;45.97;41.08;;;;;;;;;;5093114;28;20058;-52
2023/09/10 01:17:46;;;;;;;44.60;39.92;;;;;;;;;;5092654;28;20032;-54
2023/09/10 01:20:24;;;;;;;45.75;40.88;;;;;;;;;;5092652;28;20064;-53
2023/09/10 01:22:50;;;;;;;44.60;39.87;;;;;;;;;;5094034;28;20035;-53
2023/09/10 01:25:16;;;;;;;47.80;41.90;;;;;;;;;;5093145;28;20042;-55
2023/09/10 01:27:43;;;;;;;44.03;39.38;;;;;;;;;;5093564;28;20028;-53
2023/09/10 01:30:09;;;;;;;45.50;40.78;;;;;;;;;;5093169;28;20035;-55
2023/09/10 01:32:48;;;;;;;46.25;41.40;;;;;;;;;;5093759;28;20020;-55
2023/09/10 01:35:14;;;;;;;;;;;;;;;;;;5093164;28;20027;-54
2023/09/10 01:37:46;;;;;;;43.78;39.17;;;;;;;;;;5093520;28;19916;-55
2023/09/10 01:40:14;;;;;;;44.70;39.80;;;;;;;;;;5093323;28;20089;-52
2023/09/10 01:42:41;;;;;;;45.85;41.10;;;;;;;;;;5082210;28;20473;-55
2023/09/10 01:45:08;;;;;;;44.53;39.80;;;;;;;;;;5092182;28;20109;-51
2023/09/10 01:47:34;;;;;;;44.55;39.90;;;;;;;;;;5084734;28;20024;-53
2023/09/10 01:50:00;;;;;;;45.25;40.50;;;;;;;;;;5093263;28;20165;-55
2023/09/10 01:52:26;;;;;;;44.85;40.05;;;;;;;;;;5091920;28;20368;-54
2023/09/10 01:54:52;;;;;;;45.25;40.65;;;;;;;;;;5091240;28;20452;-54
2023/09/10 01:57:18;;;;;;;44.38;39.65;;;;;;;;;;5093188;28;20090;-54
2023/09/10 01:59:44;;;;;;;44.15;38.92;;;;;;;;;;5093122;28;20027;-54
2023/09/10 02:02:10;;;;;;;43.28;38.53;;;;;;;;;;5093488;28;20012;-51
2023/09/10 02:04:36;;;;;;;42.70;38.20;;;;;;;;;;5092292;28;20119;-53
2023/09/10 02:07:02;;;;;;;46.20;41.20;;;;;;;;;;5093275;28;20019;-52
2023/09/10 02:09:28;;;;;;;45.78;40.83;;;;;;;;;;5092906;28;20472;-55
2023/09/10 02:11:54;;;;;;;47.97;41.80;;;;;;;;;;5092886;28;20028;-52
2023/09/10 02:14:20;;;;;;;47.38;42.42;;;;;;;;;;5091917;28;20020;-56
2023/09/10 02:16:46;;;;;;;47.28;42.03;;;;;;;;;;5092751;28;20032;-53
2023/09/10 02:19:12;;;;;;;50.33;45.33;;;;;;;;;;5092737;28;20072;-55
2023/09/10 02:21:38;;;;;;;51.15;45.78;;;;;;;;;;5092750;28;20032;-56
2023/09/10 02:24:04;;;;;;;47.35;42.15;;;;;;;;;;5092061;28;20028;-50
2023/09/10 02:26:30;;;;;;;50.22;44.83;;;;;;;;;;5092455;28;20024;-50
2023/09/10 02:28:56;;;;;;;48.63;43.70;;;;;;;;;;5092550;28;20044;-55
2023/09/10 02:31:22;;;;;;;50.22;44.80;;;;;;;;;;5092619;28;20077;-55
2023/09/10 02:33:48;;;;;;;48.70;43.40;;;;;;;;;;5092376;28;20020;-55
2023/09/10 02:36:14;;;;;;;48.13;43.15;;;;;;;;;;5091807;28;20403;-54
2023/09/10 02:38:40;;;;;;;48.80;43.47;;;;;;;;;;5092323;28;20099;-55
2023/09/10 02:41:06;;;;;;;47.08;42.13;;;;;;;;;;5091477;28;20034;-52
2023/09/10 02:43:32;;;;;;;47.83;42.25;;;;;;;;;;5092128;28;20430;-55
2023/09/10 02:45:58;;;;;;;47.40;42.20;;;;;;;;;;5091634;28;20028;-55
2023/09/10 02:48:24;;;;;;;47.42;42.47;;;;;;;;;;5092139;28;20183;-55
2023/09/10 02:50:50;;;;;;;49.47;44.03;;;;;;;;;;5092015;28;20037;-51
2023/09/10 02:53:16;;;;;;;50.03;44.60;;;;;;;;;;5092137;28;20440;-53
2023/09/10 02:55:42;;;;;;;48.08;43.22;;;;;;;;;;5091268;28;20028;-52
2023/09/10 02:58:08;;;;;;;48.55;43.30;;;;;;;;;;5092340;28;20030;-53
2023/09/10 03:00:34;;;;;;;46.65;41.75;;;;;;;;;;5092132;28;20028;-52
2023/09/10 03:03:00;;;;;;;47.83;42.70;;;;;;;;;;5092250;28;20453;-52
2023/09/10 03:05:26;;;;;;;44.83;40.05;;;;;;;;;;5090099;28;20036;-52
2023/09/10 03:07:53;;;;;;;46.10;40.15;;;;;;;;;;5091936;28;20050;-52
2023/09/10 03:10:19;;;;;;;45.35;40.53;;;;;;;;;;5091797;28;20434;-53
2023/09/10 03:12:45;;;;;;;44.75;39.95;;;;;;;;;;5090705;28;20055;-52
2023/09/10 03:15:11;;;;;;;46.33;41.42;;;;;;;;;;5091045;28;20121;-52
2023/09/10 03:17:37;;;;;;;43.35;38.70;;;;;;;;;;5091924;28;20494;-52
2023/09/10 03:20:04;;;;;;;45.17;40.25;;;;;;;;;;5092104;28;20085;-51
2023/09/10 03:22:30;;;;;;;42.53;38.03;;;;;;;;;;5091736;28;20038;-56
2023/09/10 03:24:57;;;;;;;42.13;37.65;;;;;;;;;;5090484;28;20036;-55
2023/09/10 03:27:23;;;;;;;39.90;35.53;;;;;;;;;;5089851;28;20051;-54
2023/09/10 03:29:50;;;;;;;43.17;38.67;;;;;;;;;;5091119;28;20024;-56
2023/09/10 03:32:16;;;;;;;41.55;37.05;;;;;;;;;;5089822;28;20020;-54
2023/09/10 03:34:42;;;;;;;42.22;37.72;;;;;;;;;;5090433;28;20031;-55
2023/09/10 03:37:08;;;;;;;44.83;40.03;;;;;;;;;;5091207;28;20525;-53
2023/09/10 03:39:34;;;;;;;46.17;41.45;;;;;;;;;;5091106;28;20028;-55
2023/09/10 03:42:00;;;;;;;43.47;38.90;;;;;;;;;;5090981;28;20098;-53
2023/09/10 03:44:26;;;;;;;41.92;37.55;;;;;;;;;;5090057;28;20035;-53
2023/09/10 03:46:53;;;;;;;40.55;36.35;;;;;;;;;;5090878;28;20079;-52
2023/09/10 03:49:19;;;;;;;40.65;35.83;;;;;;;;;;5090896;28;20016;-51
2023/09/10 03:51:46;;;;;;;43.78;37.20;;;;;;;;;;5098897;28;20023;-54
2023/09/10 03:54:12;;;;;;;38.55;34.55;;;;;;;;;;5095537;28;20028;-55
2023/09/10 03:56:39;;;;;;;41.83;34.50;;;;;;;;;;5091243;28;20020;-51
2023/09/10 03:59:06;;;;;;;39.03;34.90;;;;;;;;;;5091021;28;20031;-53
2023/09/10 04:01:32;;;;;;;39.83;35.60;;;;;;;;;;5090706;28;20035;-53
2023/09/10 04:03:59;;;;;;;42.47;37.65;;;;;;;;;;5090271;28;20111;-54
2023/09/10 04:06:25;;;;;;;44.83;37.33;;;;;;;;;;5090766;28;20043;-51
2023/09/10 04:08:50;;;;;;;42.85;36.50;;;;;;;;;;5090883;28;20024;-54
2023/09/10 04:11:16;;;;;;;41.83;36.80;;;;;;;;;;5090907;28;20020;-55
2023/09/10 04:13:42;;;;;;;45.47;40.58;;;;;;;;;;5089469;28;20417;-55
2023/09/10 04:16:08;;;;;;;45.95;41.20;;;;;;;;;;5090084;28;20103;-52
2023/09/10 04:18:34;;;;;;;46.83;41.72;;;;;;;;;;5090829;28;20126;-54
2023/09/10 04:21:04;;;;;;;46.13;41.20;;;;;;;;;;5089385;28;20035;-54
2023/09/10 04:23:30;;;;;;;46.45;41.65;;;;;;;;;;5090778;28;20035;-53
2023/09/10 04:25:56;;;;;;;46.40;41.53;;;;;;;;;;5089943;28;20028;-53
2023/09/10 04:28:22;;;;;;;48.88;43.67;;;;;;;;;;5090698;28;20032;-55
2023/09/10 04:30:48;;;;;;;50.60;45.38;;;;;;;;;;5091002;28;20028;-50
2023/09/10 04:33:16;;;;;;;48.22;43.13;;;;;;;;;;5090893;28;20031;-51
2023/09/10 04:35:47;;;;;;;45.45;40.65;;;;;;;;;;5090093;28;20020;-53
2023/09/10 04:38:13;;;;;;;50.95;45.47;;;;;;;;;;5090655;28;20035;-55
2023/09/10 04:40:41;;;;;;;48.15;43.08;;;;;;;;;;5090640;28;20423;-52
2023/09/10 04:43:07;;;;;;;54.08;46.97;;;;;;;;;;5090703;28;20024;-52
2023/09/10 04:45:33;;;;;;;53.35;47.40;;;;;;;;;;5089872;28;20024;-54
2023/09/10 04:47:59;;;;;;;53.42;47.80;;;;;;;;;;5090477;28;20027;-54
2023/09/10 04:50:25;;;;;;;48.20;42.92;;;;;;;;;;5090464;28;20059;-53
2023/09/10 04:52:52;;;;;;;51.08;45.38;;;;;;;;;;5090602;28;20051;-55
2023/09/10 04:55:18;;;;;;;52.22;46.85;;;;;;;;;;5088316;28;20115;-54
2023/09/10 04:57:45;;;;;;;48.97;43.88;;;;;;;;;;5090485;28;20085;-54
2023/09/10 05:00:12;;;;;;;49.05;43.97;;;;;;;;;;5090470;28;20024;-53
2023/09/10 05:02:38;;;;;;;47.42;42.53;;;;;;;;;;5090389;28;20039;-55
2023/09/10 05:05:04;;;;;;;50.38;45.08;;;;;;;;;;5091802;28;20031;-55
2023/09/10 05:07:30;;;;;;;50.33;45.00;;;;;;;;;;5094091;28;20031;-54
2023/09/10 05:09:56;;;;;;;50.97;45.65;;;;;;;;;;5094043;28;20380;-55
2023/09/10 05:12:22;;;;;;;49.42;44.13;;;;;;;;;;5093979;28;20063;-53
2023/09/10 05:14:48;;;;;;;48.92;43.03;;;;;;;;;;5093100;28;20028;-55
2023/09/10 05:17:14;;;;;;;48.70;43.53;;;;;;;;;;5093734;28;20077;-50
2023/09/10 05:19:40;;;;;;;43.28;38.38;;;;;;;;;;5094002;28;20035;-50
2023/09/10 05:22:06;;;;;;;42.65;38.15;;;;;;;;;;5093770;28;20031;-55
2023/09/10 05:24:32;;;;;;;42.05;37.00;;;;;;;;;;5093039;28;20055;-53
2023/09/10 05:26:58;;;;;;;40.33;34.85;;;;;;;;;;5097943;28;20515;-53
2023/09/10 05:29:26;;;;;;;39.22;35.08;;;;;;;;;;5096796;28;20024;-48
2023/09/10 05:31:52;;;;;;;40.90;36.50;;;;;;;;;;5094291;28;20024;-52
2023/09/10 05:34:18;;;;;;;39.45;35.13;;;;;;;;;;5092908;28;20030;-54
2023/09/10 05:36:44;;;;;;;37.47;33.47;;;;;;;;;;5093619;28;20407;-55
2023/09/10 05:39:10;;;;;;;38.33;33.90;;;;;;;;;;5093225;28;20103;-55
2023/09/10 05:41:36;;;;;;;39.15;34.95;;;;;;;;;;5081101;28;20098;-53
2023/09/10 05:44:03;;;;;;;41.20;36.80;;;;;;;;;;5075685;28;20032;-55
2023/09/10 05:46:29;;;;;;;40.63;35.97;;;;;;;;;;5093035;28;20032;-53
2023/09/10 05:48:55;;;;;;;41.47;37.08;;;;;;;;;;5092998;28;20032;-55
2023/09/10 05:51:21;;;;;;;42.10;37.70;;;;;;;;;;5093313;28;20020;-54
2023/09/10 05:53:47;;;;;;;41.78;36.65;;;;;;;;;;5092783;28;20460;-53
2023/09/10 05:56:13;;;;;;;44.63;39.90;;;;;;;;;;5091145;28;20008;-51
2023/09/10 05:58:39;;;;;;;43.33;38.67;;;;;;;;;;5074462;28;20043;-54
2023/09/10 06:01:05;;;;;;;44.85;40.15;;;;;;;;;;5080591;28;20115;-52
2023/09/10 06:03:31;;;;;;;42.28;37.78;;;;;;;;;;5091770;28;20081;-55
2023/09/10 06:06:00;;;;;;;49.63;44.33;;;;;;;;;;5084393;28;20121;-53
2023/09/10 06:08:26;;;;;;;45.83;41.05;;;;;;;;;;5092707;28;20106;-53
2023/09/10 06:10:52;;;;;;;47.25;38.47;;;;;;;;;;5092701;28;20048;-55
2023/09/10 06:13:18;;;;;;;47.70;42.65;;;;;;;;;;5092700;28;20020;-54
2023/09/10 06:15:44;;;;;;;40.28;35.97;;;;;;;;;;5072117;28;20021;-54
2023/09/10 06:18:10;;;;;;;45.33;40.45;;;;;;;;;;5072574;28;20024;-53
2023/09/10 06:20:36;;;;;;;47.55;42.80;;;;;;;;;;5072331;28;20078;-51
2023/09/10 06:23:02;;;;;;;46.60;41.60;;;;;;;;;;5072322;28;20052;-55
2023/09/10 06:25:28;;;;;;;44.30;39.50;;;;;;;;;;5071530;28;20033;-53
2023/09/10 06:27:54;;;;;;;48.15;41.05;;;;;;;;;;5072051;28;20083;-54
2023/09/10 06:30:20;;;;;;;49.28;44.05;;;;;;;;;;5070973;28;20405;-53
2023/09/10 06:32:49;;;;;;;48.13;42.92;;;;;;;;;;5072223;28;20031;-52
2023/09/10 06:35:15;;;;;;;;;;;;;;;;;;5072222;28;20036;-53
2023/09/10 06:37:41;;;;;;;51.80;46.40;;;;;;;;;;5072134;28;19948;-56
2023/09/10 06:40:07;;;;;;;52.53;47.15;;;;;;;;;;5072048;28;20028;-55
2023/09/10 06:42:33;;;;;;;53.13;47.55;;;;;;;;;;5086131;28;20043;-54
2023/09/10 06:44:59;;;;;;;57.50;51.63;;;;;;;;;;5091735;28;20036;-51
2023/09/10 06:47:27;;;;;;;62.10;55.60;;;;;;;;;;5092230;28;20016;-53
2023/09/10 06:49:53;;;;;;;56.88;50.95;;;;;;;;;;5092314;28;20411;-51
2023/09/10 06:52:19;;;;;;;56.13;50.38;;;;;;;;;;5092084;28;20026;-54
2023/09/10 06:54:45;;;;;;;56.38;50.63;;;;;;;;;;5089910;28;20452;-53
2023/09/10 06:57:11;;;;;;;60.15;53.83;;;;;;;;;;5091952;28;20027;-55
2023/09/10 06:59:37;;;;;;;58.67;52.70;;;;;;;;;;5091970;28;20031;-50
2023/09/10 07:02:03;;;;;;;56.85;51.05;;;;;;;;;;5091930;28;20477;-54
2023/09/10 07:04:29;;;;;;;58.35;52.40;;;;;;;;;;5090969;28;20115;-53
2023/09/10 07:06:55;;;;;;;58.85;52.85;;;;;;;;;;5091499;28;20070;-55
2023/09/10 07:09:22;;;;;;;58.80;52.72;;;;;;;;;;5091564;28;20020;-56
2023/09/10 07:11:51;;;;;;;66.53;59.72;;;;;;;;;;5096420;28;20024;-56
2023/09/10 07:14:18;;;;;;;59.45;53.42;;;;;;;;;;5095024;28;20024;-49
2023/09/10 07:16:44;;;;;;;58.53;52.53;;;;;;;;;;5091200;28;20483;-50
2023/09/10 07:19:11;;;;;;;61.15;54.65;;;;;;;;;;5091842;28;20024;-54
2023/09/10 07:21:37;;;;;;;62.97;56.58;;;;;;;;;;5091350;28;20051;-52
2023/09/10 07:24:06;;;;;;;57.45;51.53;;;;;;;;;;5090764;28;20046;-55
2023/09/10 07:26:32;;;;;;;57.47;51.88;;;;;;;;;;5090973;28;20403;-55
2023/09/10 07:28:58;;;;;;;57.40;51.53;;;;;;;;;;5092177;28;20081;-53
2023/09/10 07:31:24;;;;;;;57.58;51.38;;;;;;;;;;5099545;28;20063;-54
2023/09/10 07:33:50;;;;;;;57.97;52.10;;;;;;;;;;5094337;28;20020;-48
2023/09/10 07:36:16;;;;;;;60.10;53.97;;;;;;;;;;5090876;28;20020;-51
2023/09/10 07:38:42;;;;;;;59.28;53.15;;;;;;;;;;5091120;28;20031;-55
2023/09/10 07:41:08;;;;;;;60.33;54.22;;;;;;;;;;5090870;28;20380;-53
2023/09/10 07:43:34;;;;;;;57.22;51.53;;;;;;;;;;5077038;28;20074;-55
2023/09/10 07:46:00;;;;;;;53.25;47.72;;;;;;;;;;5090094;28;20070;-55
2023/09/10 07:48:26;;;;;;;57.75;51.67;;;;;;;;;;5080748;28;20028;-58
2023/09/10 07:50:58;;;;;;;56.40;50.72;;;;;;;;;;5086873;28;20460;-56
2023/09/10 07:53:24;;;;;;;52.17;46.67;;;;;;;;;;5087239;28;20422;-56
2023/09/10 07:55:50;;;;;;;52.05;46.72;;;;;;;;;;5090271;28;20024;-54
2023/09/10 07:58:16;;;;;;;53.40;47.92;;;;;;;;;;5091084;28;20036;-57
2023/09/10 08:00:42;;;;;;;52.53;47.00;;;;;;;;;;5090629;28;20115;-57
2023/09/10 08:03:08;;;;;;;49.28;44.20;;;;;;;;;;5090805;28;20085;-55
2023/09/10 08:05:34;;;;;;;47.85;43.15;;;;;;;;;;5089918;28;20645;-53
2023/09/10 08:08:02;;;;;;;45.03;40.53;;;;;;;;;;5090835;28;20660;-55
2023/09/10 08:10:29;;;;;;;48.42;43.35;;;;;;;;;;5090815;28;20126;-55
2023/09/10 08:12:55;;;;;;;44.85;40.30;;;;;;;;;;5091001;28;20082;-55
2023/09/10 08:15:21;;;;;;;47.25;42.35;;;;;;;;;;5086389;28;20032;-52
2023/09/10 08:17:48;;;;;;;45.40;40.78;;;;;;;;;;5080157;28;20030;-54
2023/09/10 08:20:14;;;;;;;46.60;41.80;;;;;;;;;;5080082;28;20028;-55
2023/09/10 08:22:40;;;;;;;45.58;40.80;;;;;;;;;;5085522;28;20032;-55
2023/09/10 08:25:08;;;;;;;45.05;40.58;;;;;;;;;;5081264;28;20364;-58
2023/09/10 08:27:35;;;;;;;47.67;42.70;;;;;;;;;;5080220;28;20527;-58
2023/09/10 08:30:03;;;;;;;42.87;38.43;;;;;;;;;;5072019;28;20025;-56
2023/09/10 08:32:29;;;;;;;41.65;37.25;;;;;;;;;;5071104;28;20074;-56
2023/09/10 08:34:55;;;;;;;40.63;36.33;;;;;;;;;;5068018;28;20021;-58
2023/09/10 08:37:21;;;;;;;41.95;37.65;;;;;;;;;;5068862;28;20044;-55
2023/09/10 08:39:48;;;;;;;42.15;37.75;;;;;;;;;;5072544;28;20107;-55
2023/09/10 08:42:19;;;;;;;43.75;39.10;;;;;;;;;;5073133;28;20154;-58
2023/09/10 08:44:48;;;;;;;41.13;36.83;;;;;;;;;;5073544;28;20392;-51
2023/09/10 08:47:16;;;;;;;40.22;36.05;;;;;;;;;;5074012;28;20463;-52
2023/09/10 08:49:43;;;;;;;39.03;35.03;;;;;;;;;;5073483;28;20051;-49
2023/09/10 08:52:10;;;;;;;40.42;36.03;;;;;;;;;;5072313;28;20441;-57
2023/09/10 08:54:36;;;;;;;39.05;35.03;;;;;;;;;;5071683;28;20090;-55
2023/09/10 08:57:02;;;;;;;35.30;31.52;;;;;;;;;;5071774;28;20503;-52
2023/09/10 08:59:29;;;;;;;38.00;33.90;;;;;;;;;;5072821;28;20035;-51
2023/09/10 09:01:56;;;;;;;35.95;32.08;;;;;;;;;;5072976;28;20024;-51
2023/09/10 09:04:23;;;;;;;36.22;32.47;;;;;;;;;;5070798;28;20087;-53
2023/09/10 09:06:54;;;;;;;38.63;34.67;;;;;;;;;;5072816;28;20082;-56
2023/09/10 09:09:20;;;;;;;38.28;34.33;;;;;;;;;;5073891;28;20044;-56
2023/09/10 09:11:47;;;;;;;36.42;32.72;;;;;;;;;;5073893;28;20103;-53
2023/09/10 09:14:13;;;;;;;34.45;30.80;;;;;;;;;;5073261;28;20085;-57
2023/09/10 09:16:42;;;;;;;34.75;30.83;;;;;;;;;;5076460;28;20188;-54
2023/09/10 09:19:12;;;;;;;35.25;31.65;;;;;;;;;;5077667;28;20036;-52
2023/09/10 09:21:40;;;;;;;33.65;29.73;;;;;;;;;;5074395;28;20032;-53
2023/09/10 09:24:06;;;;;;;;;;;;;;;;;;5073436;28;20024;-57
2023/09/10 09:26:33;;;;;;;32.78;29.27;;;;;;;;;;5073614;28;19904;-52
2023/09/10 09:29:00;;;;;;;33.00;29.60;;;;;;;;;;5073473;28;20490;-56
2023/09/10 09:31:26;;;;;;;32.42;28.88;;;;;;;;;;5072308;28;20063;-57
2023/09/10 09:33:52;;;;;;;30.23;26.80;;;;;;;;;;5073185;28;20021;-53
2023/09/10 09:36:18;;;;;;;29.58;26.55;;;;;;;;;;5073223;28;20024;-55
2023/09/10 09:38:48;;;;;;;32.13;27.42;;;;;;;;;;5072215;28;20047;-57
2023/09/10 09:41:15;;;;;;;28.05;24.77;;;;;;;;;;5073664;28;20390;-56
2023/09/10 09:43:41;;;;;;;28.27;24.42;;;;;;;;;;5073326;28;20039;-57
2023/09/10 09:46:07;;;;;;;27.88;24.98;;;;;;;;;;5071278;28;20477;-53
2023/09/10 09:48:34;;;;;;;29.38;26.20;;;;;;;;;;5071657;28;20024;-56
2023/09/10 09:51:00;;;;;;;27.65;24.63;;;;;;;;;;5073181;28;20028;-56
2023/09/10 09:53:30;;;;;;;26.65;23.80;;;;;;;;;;5073156;28;20051;-58
2023/09/10 09:56:00;;;;;;;26.83;23.92;;;;;;;;;;5072139;28;20481;-56
2023/09/10 09:58:27;;;;;;;25.58;22.23;;;;;;;;;;5073095;28;20093;-54
2023/09/10 10:00:53;;;;;;;26.55;23.63;;;;;;;;;;5073164;28;20024;-55
2023/09/10 10:03:20;;;;;;;25.98;23.15;;;;;;;;;;5072862;28;20028;-57
2023/09/10 10:05:49;;;;;;;28.02;25.08;;;;;;;;;;5071081;28;20551;-58
2023/09/10 10:08:16;;;;;;;27.33;23.95;;;;;;;;;;5073121;28;20053;-58
2023/09/10 10:10:48;;;;;;;25.20;21.60;;;;;;;;;;5073047;28;20021;-55
2023/09/10 10:13:16;;;;;;;26.70;22.00;;;;;;;;;;5072645;28;20083;-57
2023/09/10 10:15:42;;;;;;;26.20;22.33;;;;;;;;;;5070635;28;20025;-55
2023/09/10 10:18:09;;;;;;;23.13;20.13;;;;;;;;;;5072671;28;20066;-58
2023/09/10 10:20:36;;;;;;;24.20;20.55;;;;;;;;;;5072605;28;20070;-57
2023/09/10 10:23:03;;;;;;;22.50;19.92;;;;;;;;;;5072608;28;20025;-55
2023/09/10 10:25:29;;;;;;;24.70;20.17;;;;;;;;;;5071658;28;20353;-55
2023/09/10 10:27:56;;;;;;;22.25;19.55;;;;;;;;;;5072290;28;20420;-57
2023/09/10 10:30:23;;;;;;;23.27;19.10;;;;;;;;;;5071241;28;20047;-55
2023/09/10 10:32:50;;;;;;;25.15;18.35;;;;;;;;;;5072419;28;20028;-56
2023/09/10 10:35:16;;;;;;;25.20;19.70;;;;;;;;;;5071556;28;20024;-55
2023/09/10 10:37:45;;;;;;;23.70;18.88;;;;;;;;;;5072491;28;20033;-56
2023/09/10 10:40:18;;;;;;;27.50;20.92;;;;;;;;;;5072234;28;20027;-57
2023/09/10 10:42:44;;;;;;;24.63;19.90;;;;;;;;;;5072092;28;20032;-54
2023/09/10 10:45:15;;;;;;;23.67;19.23;;;;;;;;;;5071327;28;20380;-56
2023/09/10 10:47:42;;;;;;;22.40;18.60;;;;;;;;;;5082617;28;20020;-55
2023/09/10 10:50:11;;;;;;;25.98;19.60;;;;;;;;;;5092223;28;20056;-56
2023/09/10 10:52:45;;;;;;;25.52;21.73;;;;;;;;;;5092271;28;20027;-56
2023/09/10 10:55:11;;;;;;;22.42;18.75;;;;;;;;;;4729062;28;10000035;-57
2023/09/10 10:57:38;;;;;;;23.90;19.13;;;;;;;;;;5085349;28;20021;-53
2023/09/10 11:00:07;;;;;;;23.95;19.55;;;;;;;;;;5070079;28;20017;-57
2023/09/10 11:02:33;;;;;;;24.13;18.52;;;;;;;;;;5087341;28;20034;-56
2023/09/10 11:05:00;;;;;;;24.02;18.60;;;;;;;;;;5082082;28;20123;-53
2023/09/10 11:07:29;;;;;;;22.10;17.73;;;;;;;;;;5078970;28;20027;-53
2023/09/10 11:09:57;;;;;;;22.25;17.80;;;;;;;;;;5079895;28;20039;-50
2023/09/10 11:12:24;;;;;;;21.65;16.38;;;;;;;;;;5080030;28;20028;-54
2023/09/10 11:15:03;;;;;;;22.75;17.08;;;;;;;;;;5077745;28;20020;-55
2023/09/10 11:17:32;;;;;;;23.50;17.98;;;;;;;;;;5078007;28;20025;-55
2023/09/10 11:19:58;;;;;;;25.83;18.90;;;;;;;;;;5077018;28;20028;-56
2023/09/10 11:22:24;;;;;;;25.38;18.48;;;;;;;;;;5078786;28;20024;-56
2023/09/10 11:25:00;;;;;;;23.73;18.45;;;;;;;;;;5075036;28;20035;-56
2023/09/10 11:27:30;;;;;;;23.70;17.55;;;;;;;;;;5077149;28;20056;-55
2023/09/10 11:30:08;;;;;;;20.58;18.10;;;;;;;;;;5077535;28;20107;-54
2023/09/10 11:32:35;;;;;;;24.80;19.77;;;;;;;;;;5068615;28;20111;-57
2023/09/10 11:35:19;;;;;;;23.80;17.98;;;;;;;;;;5067782;28;20062;-55
2023/09/10 11:37:52;;;;;;;26.48;20.05;;;;;;;;;;5069292;28;20127;-54
2023/09/10 11:40:18;;;;;;;23.15;18.58;;;;;;;;;;5070859;28;20465;-52
2023/09/10 11:42:45;;;;;;;22.65;18.67;;;;;;;;;;5077197;28;20020;-55
2023/09/10 11:45:12;;;;;;;24.88;18.35;;;;;;;;;;5079383;28;20024;-55
2023/09/10 11:47:41;;;;;;;27.27;18.20;;;;;;;;;;5082601;28;20429;-55
2023/09/10 11:50:08;;;;;;;21.77;18.15;;;;;;;;;;5081666;28;20063;-55
2023/09/10 11:52:35;;;;;;;26.63;18.83;;;;;;;;;;5080130;28;20507;-55
2023/09/10 11:55:01;;;;;;;24.77;18.88;;;;;;;;;;5073813;28;20032;-55
2023/09/10 11:57:28;;;;;;;24.13;18.47;;;;;;;;;;5070228;28;20090;-55
2023/09/10 11:59:54;;;;;;;24.40;18.90;;;;;;;;;;5077222;28;20039;-56
2023/09/10 12:02:24;;;;;;;27.83;19.13;;;;;;;;;;5086687;28;20418;-54
2023/09/10 12:04:50;;;;;;;25.10;19.85;;;;;;;;;;5082835;23;20143;-56
2023/09/10 12:07:16;;;;;;;23.92;19.23;;;;;;;;;;5031491;28;20480;-56
2023/09/10 12:09:42;;;;;;;26.17;18.23;;;;;;;;;;5049518;28;20033;-56
2023/09/10 12:12:08;;;;;;;27.35;19.35;;;;;;;;;;5049863;28;20094;-56
2023/09/10 12:14:34;;;;;;;29.40;19.17;;;;;;;;;;5051170;28;20025;-56
2023/09/10 12:17:01;;;;;;;26.48;18.85;;;;;;;;;;5033769;28;20531;-56
2023/09/10 12:19:27;;;;;;;29.50;18.73;;;;;;;;;;5053730;28;20048;-56
2023/09/10 12:21:53;;;;;;;25.88;17.90;;;;;;;;;;5053251;28;20033;-58
2023/09/10 12:24:19;;;;;;;27.30;19.17;;;;;;;;;;5052782;28;20025;-56
2023/09/10 12:26:45;;;;;;;28.13;18.10;;;;;;;;;;5053561;28;20418;-58
2023/09/10 12:29:14;;;;;;;24.13;18.20;;;;;;;;;;5052410;28;20070;-59
2023/09/10 12:31:41;;;;;;;32.40;19.42;;;;;;;;;;5039961;28;20025;-60
2023/09/10 12:34:09;;;;;;;27.08;18.73;;;;;;;;;;5020361;28;20056;-59
2023/09/10 12:36:36;;;;;;;31.08;18.23;;;;;;;;;;5033272;28;20026;-59
2023/09/10 12:39:02;;;;;;;28.97;19.07;;;;;;;;;;5033517;28;20021;-59
2023/09/10 12:41:28;;;;;;;26.65;18.13;;;;;;;;;;5040448;28;20343;-60
2023/09/10 12:43:54;;;;;;;27.67;18.55;;;;;;;;;;5040916;28;20028;-60
2023/09/10 12:46:20;;;;;;;32.30;18.75;;;;;;;;;;5037710;28;20017;-59
2023/09/10 12:48:46;;;;;;;29.67;18.30;;;;;;;;;;5032831;28;20121;-58
2023/09/10 12:51:13;;;;;;;26.85;18.00;;;;;;;;;;5033425;28;20603;-60
2023/09/10 12:53:39;;;;;;;26.83;18.52;;;;;;;;;;5033566;28;20024;-58
2023/09/10 12:56:06;;;;;;;30.65;19.25;;;;;;;;;;5032542;28;20021;-58
2023/09/10 12:58:32;;;;;;;27.50;19.38;;;;;;;;;;5033074;28;20033;-57
2023/09/10 13:00:59;;;;;;;33.55;19.40;;;;;;;;;;5033154;28;20033;-59
2023/09/10 13:03:26;;;;;;;32.88;18.65;;;;;;;;;;5033047;28;20099;-57
2023/09/10 13:05:52;;;;;;;30.42;19.17;;;;;;;;;;5031922;28;20041;-56
2023/09/10 13:08:18;;;;;;;28.60;18.90;;;;;;;;;;5032701;28;20071;-56
2023/09/10 13:10:44;;;;;;;29.52;19.75;;;;;;;;;;5032317;28;20037;-56
2023/09/10 13:13:11;;;;;;;24.05;17.80;;;;;;;;;;5032479;28;20021;-60
2023/09/10 13:15:37;;;;;;;32.53;18.92;;;;;;;;;;5031861;28;20033;-53
2023/09/10 13:18:03;;;;;;;31.08;19.08;;;;;;;;;;5023512;28;20025;-54
2023/09/10 13:20:29;;;;;;;32.00;19.65;;;;;;;;;;5052491;28;20025;-56
2023/09/10 13:22:55;;;;;;;29.92;18.67;;;;;;;;;;5051782;28;20032;-55
2023/09/10 13:25:21;;;;;;;30.55;18.65;;;;;;;;;;4350817;28;10000277;-58
2023/09/10 13:27:47;;;;;;;31.98;20.48;;;;;;;;;;5031422;28;20021;-61
2023/09/10 13:30:13;;;;;;;27.45;19.17;;;;;;;;;;5049418;28;20060;-57
2023/09/10 13:32:39;;;;;;;30.15;20.33;;;;;;;;;;5048696;28;20040;-61
2023/09/10 13:35:05;;;;;;;27.25;18.17;;;;;;;;;;5047092;28;20029;-60
2023/09/10 13:37:31;;;;;;;24.75;18.08;;;;;;;;;;5048515;28;20035;-60
2023/09/10 13:39:57;;;;;;;27.90;18.55;;;;;;;;;;5048915;28;20037;-60
2023/09/10 13:42:24;;;;;;;26.98;19.45;;;;;;;;;;5042037;28;20088;-59
2023/09/10 13:44:50;;;;;;;28.48;19.58;;;;;;;;;;5028474;28;20032;-58
2023/09/10 13:47:16;;;;;;;28.83;19.48;;;;;;;;;;5028467;28;20385;-59
2023/09/10 13:49:42;;;;;;;25.60;19.75;;;;;;;;;;5011140;28;20034;-61
2023/09/10 13:52:10;;;;;;;27.33;19.05;;;;;;;;;;5041431;28;20036;-59
2023/09/10 13:54:36;;;;;;;29.30;19.25;;;;;;;;;;5048096;28;20040;-61
2023/09/10 13:57:02;;;;;;;36.28;20.48;;;;;;;;;;5031049;28;20696;-58
2023/09/10 13:59:28;;;;;;;27.45;19.58;;;;;;;;;;5048294;28;20033;-59
2023/09/10 14:01:54;;;;;;;31.05;20.08;;;;;;;;;;5048436;28;20039;-55
2023/09/10 14:04:20;;;;;;;27.05;19.65;;;;;;;;;;5035754;28;20109;-57
2023/09/10 14:06:46;;;;;;;28.80;19.23;;;;;;;;;;5013566;28;20029;-61
2023/09/10 14:09:12;;;;;;;26.98;18.45;;;;;;;;;;5035028;28;20040;-59
2023/09/10 14:11:38;;;;;;;28.65;20.00;;;;;;;;;;5038771;28;20104;-59
2023/09/10 14:14:04;;;;;;;27.77;19.23;;;;;;;;;;5036251;28;20129;-61
2023/09/10 14:16:30;;;;;;;29.35;19.05;;;;;;;;;;5044068;28;20020;-59